Time;durP1;ratioP1;P1;durP2;ratioP2;P2;SDS_P1;SDS_P2;PMS_P1;PMS_P2;Temp;Humidity;BMP_temperature;BMP_pressure;BME280_temperature;BME280_humidity;BME280_pressure;Samples;Min_cycle;Max_cycle;Signal;HPM_P1;HPM_P2
2023/03/12 00:00:30;;;;;;;5.75;3.17;;;;;;;2.76;53.71;94080.66;5107253;28;20038;-73
2023/03/12 00:02:55;;;;;;;7.22;3.20;;;;;;;2.71;53.70;94081.13;5106004;28;20030;-74
2023/03/12 00:05:21;;;;;;;4.32;2.40;;;;;;;2.79;53.24;94081.78;5105944;28;20401;-74
2023/03/12 00:07:47;;;;;;;4.07;3.08;;;;;;;2.71;53.77;94080.34;5105582;28;20149;-73
2023/03/12 00:10:13;;;;;;;3.42;2.70;;;;;;;2.70;53.40;94086.97;5105359;28;20460;-73
2023/03/12 00:12:39;;;;;;;6.13;2.90;;;;;;;2.72;53.86;94081.88;5105376;28;20077;-73
2023/03/12 00:15:05;;;;;;;5.32;2.78;;;;;;;2.73;53.19;94075.28;5104270;28;20507;-73
2023/03/12 00:17:30;;;;;;;6.65;3.10;;;;;;;2.67;53.35;94094.72;5105191;28;20527;-73
2023/03/12 00:19:56;;;;;;;3.78;2.90;;;;;;;2.66;53.16;94090.47;5107136;28;20107;-73
2023/03/12 00:22:21;;;;;;;3.85;3.03;;;;;;;2.60;53.59;94105.66;5107395;28;20028;-73
2023/03/12 00:24:55;;;;;;;6.07;3.67;;;;;;;2.59;53.23;94112.28;5090617;28;20027;-72
2023/03/12 00:27:22;;;;;;;6.50;3.30;;;;;;;2.43;54.19;94111.28;5106589;28;20118;-73
2023/03/12 00:29:47;;;;;;;4.03;3.17;;;;;;;2.59;53.52;94116.94;5105666;28;20027;-73
2023/03/12 00:32:13;;;;;;;3.85;2.80;;;;;;;2.53;53.77;94127.47;5106497;28;20120;-74
2023/03/12 00:34:38;;;;;;;5.32;3.40;;;;;;;2.65;53.47;94129.66;5105012;28;20031;-73
2023/03/12 00:37:04;;;;;;;10.98;3.85;;;;;;;2.63;53.84;94123.06;5105148;28;20039;-73
2023/03/12 00:39:29;;;;;;;7.82;3.45;;;;;;;2.60;53.84;94126.59;5106620;28;20434;-73
2023/03/12 00:41:55;;;;;;;5.70;3.67;;;;;;;2.51;54.29;94131.75;5104604;28;20057;-73
2023/03/12 00:44:20;;;;;;;7.22;3.65;;;;;;;2.65;53.84;94134.31;5105143;28;20084;-74
2023/03/12 00:46:45;;;;;;;4.70;3.53;;;;;;;2.65;53.74;94129.66;5106172;28;20042;-73
2023/03/12 00:49:11;;;;;;;6.53;3.78;;;;;;;2.69;53.99;94123.41;5106347;28;20024;-75
2023/03/12 00:51:37;;;;;;;4.63;3.80;;;;;;;2.55;54.25;94118.91;5105878;28;20095;-73
2023/03/12 00:54:03;;;;;;;4.35;3.65;;;;;;;2.52;53.98;94136.75;5105212;28;20030;-73
2023/03/12 00:56:28;;;;;;;5.68;3.58;;;;;;;2.48;54.34;94121.72;5087594;28;20032;-73
2023/03/12 00:58:54;;;;;;;6.35;4.50;;;;;;;2.61;53.66;94136.28;5104951;28;20015;-72
2023/03/12 01:01:19;;;;;;;4.45;3.80;;;;;;;2.66;53.73;94125.00;5106287;28;20086;-74
2023/03/12 01:03:45;;;;;;;4.43;3.60;;;;;;;2.66;53.52;94125.00;5104280;28;20024;-72
2023/03/12 01:06:11;;;;;;;5.75;3.45;;;;;;;2.59;53.54;94122.38;5104684;28;20032;-73
2023/03/12 01:08:36;;;;;;;10.10;4.30;;;;;;;2.51;53.86;94121.66;5104292;28;20647;-74
2023/03/12 01:11:02;;;;;;;6.80;3.97;;;;;;;2.38;54.02;94126.84;5104261;28;20520;-74
2023/03/12 01:13:27;;;;;;;10.95;5.00;;;;;;;2.45;54.05;94141.50;5105655;28;20148;-74
2023/03/12 01:15:53;;;;;;;6.05;4.45;;;;;;;2.54;53.33;94128.22;5106104;28;20032;-73
2023/03/12 01:18:18;;;;;;;5.68;4.20;;;;;;;2.41;53.98;94141.56;5104465;28;20137;-72
2023/03/12 01:20:44;;;;;;;5.38;3.78;;;;;;;2.45;53.43;94144.22;5105342;28;20508;-73
2023/03/12 01:23:09;;;;;;;5.15;3.65;;;;;;;2.38;53.74;94142.34;5105166;28;20046;-73
2023/03/12 01:25:35;;;;;;;7.65;3.55;;;;;;;2.43;53.47;94141.13;5099810;28;20402;-72
2023/03/12 01:28:01;;;;;;;5.32;3.55;;;;;;;2.39;53.66;94149.31;5100043;28;20046;-73
2023/03/12 01:30:27;;;;;;;5.28;3.80;;;;;;;2.31;53.31;94134.28;5104265;28;20040;-73
2023/03/12 01:32:52;;;;;;;4.40;3.65;;;;;;;2.32;53.61;94149.38;5105197;28;20035;-72
2023/03/12 01:35:18;;;;;;;5.70;3.85;;;;;;;2.40;53.51;94151.59;5102785;28;20514;-73
2023/03/12 01:37:43;;;;;;;6.93;4.03;;;;;;;2.30;53.66;94152.50;5103607;28;20088;-73
2023/03/12 01:40:14;;;;;;;5.97;3.97;;;;;;;2.36;53.84;94150.13;5084202;28;20123;-73
2023/03/12 01:42:40;;;;;;;6.93;3.70;;;;;;;2.25;53.36;94133.19;5103837;28;20060;-73
2023/03/12 01:45:26;;;;;;;11.60;4.18;;;;;;;2.38;53.56;94147.75;5101832;28;20418;-73
2023/03/12 01:47:51;;;;;;;6.00;3.95;;;;;;;2.32;53.33;94146.66;5096560;28;20109;-73
2023/03/12 01:50:16;;;;;;;6.15;4.10;;;;;;;2.35;53.77;94145.84;5104494;28;20066;-74
2023/03/12 01:52:42;;;;;;;4.90;3.95;;;;;;;2.35;53.66;94138.50;5103479;28;20032;-74
2023/03/12 01:55:09;;;;;;;6.30;4.18;;;;;;;2.36;53.76;94137.31;5103429;28;20164;-73
2023/03/12 01:57:37;;;;;;;4.70;3.83;;;;;;;2.40;53.87;94135.31;5101861;28;20133;-74
2023/03/12 02:00:17;;;;;;;5.82;3.78;;;;;;;2.36;53.84;94142.75;5102746;28;20032;-73
2023/03/12 02:02:43;;;;;;;8.02;4.22;;;;;;;2.27;54.36;94149.81;5101831;28;20027;-73
2023/03/12 02:05:17;;;;;;;4.80;3.75;;;;;;;2.31;54.45;94147.84;5102061;28;20563;-73
2023/03/12 02:07:43;;;;;;;4.57;3.92;;;;;;;2.35;54.27;94160.22;5103143;28;20023;-73
2023/03/12 02:10:09;;;;;;;4.70;3.72;;;;;;;2.43;53.81;94155.47;5101847;28;20528;-73
2023/03/12 02:12:34;;;;;;;5.90;3.75;;;;;;;2.35;53.71;94149.34;5100339;28;20466;-74
2023/03/12 02:15:00;;;;;;;3.70;3.38;;;;;;;2.48;53.83;94157.75;5091536;28;20034;-74
2023/03/12 02:17:25;;;;;;;8.32;3.95;;;;;;;2.48;53.72;94165.88;5102356;28;20098;-73
2023/03/12 02:20:06;;;;;;;5.20;3.60;;;;;;;2.52;53.73;94165.84;5102398;28;20031;-73
2023/03/12 02:22:34;;;;;;;5.18;3.85;;;;;;;2.59;53.38;94168.50;5101397;28;20035;-74
2023/03/12 02:25:19;;;;;;;4.15;3.40;;;;;;;2.50;53.33;94170.91;5085553;28;20042;-73
2023/03/12 02:27:45;;;;;;;5.68;3.70;;;;;;;2.54;53.26;94171.63;5103522;28;20043;-73
2023/03/12 02:30:14;;;;;;;7.22;3.90;;;;;;;2.58;53.38;94166.94;5102003;28;20027;-73
2023/03/12 02:32:40;;;;;;;6.07;3.78;;;;;;;2.63;53.25;94182.78;5102480;28;20042;-73
2023/03/12 02:35:06;;;;;;;6.28;4.00;;;;;;;2.60;53.35;94180.88;5107188;28;20042;-73
2023/03/12 02:37:32;;;;;;;5.78;3.55;;;;;;;2.62;52.93;94186.66;5106407;28;20023;-73
2023/03/12 02:40:17;;;;;;;4.82;3.75;;;;;;;2.57;53.42;94187.88;5105160;27;20031;-73
2023/03/12 02:42:44;;;;;;;4.18;3.58;;;;;;;2.60;53.46;94194.44;5087462;28;20036;-73
2023/03/12 02:45:10;;;;;;;3.70;3.25;;;;;;;2.57;53.54;94176.25;5107671;28;20066;-72
2023/03/12 02:47:35;;;;;;;5.10;3.28;;;;;;;2.61;53.66;94195.97;5103674;27;20143;-74
2023/03/12 02:50:00;;;;;;;4.78;3.55;;;;;;;2.65;53.67;94199.44;5106288;28;20052;-72
2023/03/12 02:52:26;;;;;;;4.28;3.22;;;;;;;2.55;54.01;94203.78;5108494;28;20031;-73
2023/03/12 02:54:51;;;;;;;4.72;3.33;;;;;;;2.40;54.42;94205.09;5105613;28;20050;-73
2023/03/12 02:57:17;;;;;;;4.35;3.28;;;;;;;2.37;54.54;94209.38;5107759;28;20026;-73
2023/03/12 02:59:42;;;;;;;3.80;3.30;;;;;;;2.37;54.50;94198.53;5108942;28;20032;-73
2023/03/12 03:02:08;;;;;;;4.65;3.38;;;;;;;2.38;54.69;94205.50;5109861;28;20034;-73
2023/03/12 03:04:34;;;;;;;4.35;3.72;;;;;;;2.29;54.56;94199.75;5105214;28;20088;-73
2023/03/12 03:06:59;;;;;;;5.57;3.38;;;;;;;2.30;54.61;94209.47;5106219;28;20028;-72
2023/03/12 03:09:25;;;;;;;4.68;3.40;;;;;;;2.21;55.10;94201.00;5106129;28;20153;-72
2023/03/12 03:11:50;;;;;;;6.50;3.75;;;;;;;2.26;54.86;94199.81;5105564;28;20043;-73
2023/03/12 03:14:17;;;;;;;7.03;3.75;;;;;;;2.32;54.73;94203.63;5104969;27;20031;-74
2023/03/12 03:16:42;;;;;;;7.22;3.67;;;;;;;2.29;54.98;94201.69;5105453;28;20104;-74
2023/03/12 03:19:08;;;;;;;6.35;4.07;;;;;;;2.26;54.99;94202.53;5106633;28;20482;-72
2023/03/12 03:21:33;;;;;;;5.88;3.75;;;;;;;2.22;55.39;94209.91;5107184;28;20035;-74
2023/03/12 03:23:59;;;;;;;6.88;3.88;;;;;;;2.28;55.14;94209.06;5087897;28;20186;-74
2023/03/12 03:26:25;;;;;;;5.95;3.78;;;;;;;2.25;55.17;94220.75;5088668;28;20122;-72
2023/03/12 03:28:50;;;;;;;5.90;3.70;;;;;;;2.29;55.04;94204.41;5105695;28;20059;-72
2023/03/12 03:31:16;;;;;;;4.57;3.72;;;;;;;2.23;55.04;94208.72;5105437;27;20070;-74
2023/03/12 03:33:41;;;;;;;4.38;3.63;;;;;;;2.18;55.28;94201.81;5105247;28;20043;-73
2023/03/12 03:36:07;;;;;;;6.03;4.28;;;;;;;2.11;55.22;94197.19;5105198;28;20028;-74
2023/03/12 03:38:33;;;;;;;8.77;3.95;;;;;;;2.12;55.42;94206.09;5104855;28;20526;-74
2023/03/12 03:40:59;;;;;;;5.00;3.50;;;;;;;2.05;55.29;94220.50;5106225;28;20110;-73
2023/03/12 03:43:25;;;;;;;7.18;3.92;;;;;;;1.98;55.49;94222.50;5104755;28;20404;-73
2023/03/12 03:45:58;;;;;;;6.00;3.75;;;;;;;2.10;55.14;94228.22;5103976;28;20490;-74
2023/03/12 03:48:23;;;;;;;4.35;3.22;;;;;;;2.07;55.55;94239.88;5087985;28;20695;-73
2023/03/12 03:50:49;;;;;;;6.07;3.72;;;;;;;2.01;55.53;94230.63;5105579;28;20051;-74
2023/03/12 03:53:14;;;;;;;5.25;3.58;;;;;;;1.95;55.43;94226.00;5085982;27;20036;-73
2023/03/12 03:55:40;;;;;;;5.13;3.58;;;;;;;2.04;54.98;94248.78;5107611;27;20071;-73
2023/03/12 03:58:06;;;;;;;4.25;3.33;;;;;;;1.91;55.20;94230.69;5106031;28;20063;-74
2023/03/12 04:00:32;;;;;;;6.70;3.95;;;;;;;1.93;54.06;94236.47;5105347;28;20028;-73
2023/03/12 04:02:57;;;;;;;7.07;3.47;;;;;;;1.77;54.82;94242.38;5088173;28;20152;-74
2023/03/12 04:05:23;;;;;;;5.05;3.85;;;;;;;1.84;54.44;94240.41;5107468;28;20487;-73
2023/03/12 04:07:51;;;;;;;5.63;3.20;;;;;;;1.81;53.98;94259.41;5105059;27;20062;-72
2023/03/12 04:10:21;;;;;;;4.10;2.72;;;;;;;1.71;53.96;94247.44;5105266;27;20024;-72
2023/03/12 04:12:47;;;;;;;3.85;2.83;;;;;;;1.75;53.94;94259.03;5103781;28;20454;-73
2023/03/12 04:15:12;;;;;;;5.97;3.47;;;;;;;1.65;54.36;94264.53;5104439;28;20038;-72
2023/03/12 04:17:38;;;;;;;5.10;3.28;;;;;;;1.65;54.18;94259.09;5104946;28;20058;-73
2023/03/12 04:20:06;;;;;;;4.00;3.08;;;;;;;1.71;54.13;94261.00;5103929;28;20036;-73
2023/03/12 04:22:32;;;;;;;4.28;3.38;;;;;;;1.57;53.74;94261.09;5103315;28;20042;-72
2023/03/12 04:24:57;;;;;;;3.95;3.05;;;;;;;1.54;53.87;94265.34;5103980;28;20067;-73
2023/03/12 04:27:22;;;;;;;4.63;2.88;;;;;;;1.52;53.53;94256.09;5104218;28;20024;-74
2023/03/12 04:29:48;;;;;;;4.82;2.92;;;;;;;1.42;53.30;94265.78;5104326;28;20035;-72
2023/03/12 04:32:13;;;;;;;3.72;2.80;;;;;;;1.47;52.75;94267.31;5103439;28;20434;-72
2023/03/12 04:34:39;;;;;;;5.35;3.15;;;;;;;1.51;52.36;94273.50;5105804;28;20112;-73
2023/03/12 04:37:04;;;;;;;3.15;2.47;;;;;;;1.43;51.57;94282.81;5105439;27;20044;-74
2023/03/12 04:39:29;;;;;;;6.00;2.95;;;;;;;1.39;51.39;94290.19;5105485;28;20028;-73
2023/03/12 04:41:55;;;;;;;6.55;2.40;;;;;;;1.40;51.48;94303.34;5104286;28;20381;-72
2023/03/12 04:44:20;;;;;;;4.22;2.13;;;;;;;1.25;51.88;94297.19;5103838;27;20027;-73
2023/03/12 04:46:46;;;;;;;3.30;2.15;;;;;;;1.21;51.81;94299.16;5104177;28;20501;-74
2023/03/12 04:49:11;;;;;;;3.63;2.15;;;;;;;1.24;52.13;94301.06;5105385;28;20054;-73
2023/03/12 04:51:37;;;;;;;3.55;2.50;;;;;;;1.14;52.42;94301.09;5103862;28;20109;-74
2023/03/12 04:54:02;;;;;;;2.63;2.22;;;;;;;1.17;51.95;94311.94;5105481;28;20038;-74
2023/03/12 04:56:28;;;;;;;4.03;2.15;;;;;;;1.13;52.48;94307.69;5102234;28;20066;-74
2023/03/12 04:58:53;;;;;;;3.90;2.55;;;;;;;1.21;52.27;94323.53;5103903;28;20041;-73
2023/03/12 05:01:30;;;;;;;4.45;2.25;;;;;;;1.28;51.98;94328.16;5104269;27;20023;-73
2023/03/12 05:03:55;;;;;;;5.50;2.38;;;;;;;1.10;52.64;94322.03;5104305;28;20030;-72
2023/03/12 05:06:22;;;;;;;3.28;2.20;;;;;;;1.14;52.16;94310.00;5102888;28;20442;-72
2023/03/12 05:08:47;;;;;;;4.90;2.78;;;;;;;1.30;51.93;94328.53;5086846;28;20338;-72
2023/03/12 05:11:14;;;;;;;4.55;3.10;;;;;;;1.35;52.05;94343.59;5105913;28;20418;-73
2023/03/12 05:13:39;;;;;;;7.43;3.60;;;;;;;1.44;52.09;94349.38;5103075;27;20547;-73
2023/03/12 05:16:05;;;;;;;5.35;3.63;;;;;;;1.44;51.90;94352.09;5102554;28;20072;-73
2023/03/12 05:18:31;;;;;;;3.22;2.50;;;;;;;1.41;52.10;94350.16;5104325;28;20020;-73
2023/03/12 05:20:58;;;;;;;3.58;2.20;;;;;;;1.42;52.06;94352.47;5103763;28;20559;-73
2023/03/12 05:23:24;;;;;;;3.47;2.28;;;;;;;1.36;52.31;94345.16;5102981;28;20226;-72
2023/03/12 05:25:49;;;;;;;3.42;2.47;;;;;;;1.44;52.30;94355.56;5103242;28;20513;-72
2023/03/12 05:28:14;;;;;;;4.05;2.40;;;;;;;1.42;52.52;94354.41;5104840;28;20035;-73
2023/03/12 05:30:40;;;;;;;3.85;3.00;;;;;;;1.52;52.26;94357.09;5103117;28;20036;-73
2023/03/12 05:33:05;;;;;;;3.45;2.40;;;;;;;1.50;52.50;94369.50;5103488;28;20047;-72
2023/03/12 05:35:30;;;;;;;6.32;2.75;;;;;;;1.45;52.84;94369.88;5102905;28;20607;-73
2023/03/12 05:37:56;;;;;;;4.88;2.70;;;;;;;1.47;52.75;94373.75;5103661;28;20031;-72
2023/03/12 05:40:21;;;;;;;3.42;2.28;;;;;;;1.55;52.36;94367.16;5102821;28;20027;-72
2023/03/12 05:42:47;;;;;;;6.38;3.13;;;;;;;1.60;52.27;94382.97;5104357;28;20536;-72
2023/03/12 05:45:12;;;;;;;5.30;2.67;;;;;;;1.62;52.21;94377.19;5103322;28;20046;-72
2023/03/12 05:47:37;;;;;;;4.05;2.70;;;;;;;1.53;51.31;94369.47;5102960;28;20505;-72
2023/03/12 05:50:03;;;;;;;4.15;2.90;;;;;;;1.50;51.05;94377.63;5104410;28;20030;-72
2023/03/12 05:52:28;;;;;;;5.60;2.78;;;;;;;1.54;51.17;94394.63;5104107;28;20031;-72
2023/03/12 05:54:54;;;;;;;4.53;2.83;;;;;;;1.60;51.39;94387.63;5103567;28;20028;-72
2023/03/12 05:57:19;;;;;;;5.13;2.80;;;;;;;1.57;51.48;94385.72;5103037;28;20043;-72
2023/03/12 05:59:45;;;;;;;3.63;2.55;;;;;;;1.67;50.63;94387.63;5085028;28;20405;-72
2023/03/12 06:02:10;;;;;;;3.25;2.03;;;;;;;1.60;49.93;94393.03;5102974;28;20038;-72
2023/03/12 06:04:36;;;;;;;2.80;2.20;;;;;;;1.64;49.32;94396.53;5099696;28;20035;-73
2023/03/12 06:07:01;;;;;;;4.20;3.00;;;;;;;1.71;49.02;94401.13;5103259;28;20115;-72
2023/03/12 06:09:26;;;;;;;3.20;2.40;;;;;;;1.72;49.30;94406.19;5083309;28;20490;-71
2023/03/12 06:11:52;;;;;;;2.80;2.10;;;;;;;1.70;48.09;94403.06;5102526;28;20027;-72
2023/03/12 06:14:17;;;;;;;3.33;2.05;;;;;;;1.69;47.76;94412.38;5102569;28;20106;-71
2023/03/12 06:16:43;;;;;;;3.45;2.08;;;;;;;1.65;48.51;94406.19;5104657;28;20034;-73
2023/03/12 06:19:12;;;;;;;4.43;1.85;;;;;;;1.64;48.11;94414.72;5086207;28;20110;-73
2023/03/12 06:21:38;;;;;;;3.20;2.03;;;;;;;1.69;48.37;94419.75;5092625;27;20032;-71
2023/03/12 06:24:04;;;;;;;2.40;1.63;;;;;;;1.78;48.39;94423.59;5103500;28;20046;-72
2023/03/12 06:26:29;;;;;;;3.65;2.30;;;;;;;1.79;48.81;94416.22;5103604;28;20543;-72
2023/03/12 06:28:55;;;;;;;3.38;2.30;;;;;;;1.79;47.84;94421.66;5086340;28;20451;-73
2023/03/12 06:31:20;;;;;;;2.55;2.03;;;;;;;1.76;47.67;94436.75;5102296;28;20105;-72
2023/03/12 06:33:46;;;;;;;2.53;1.60;;;;;;;1.83;47.78;94428.56;5101050;28;20102;-71
2023/03/12 06:36:12;;;;;;;3.25;2.53;;;;;;;1.84;48.13;94446.41;5081949;28;20028;-71
2023/03/12 06:38:37;;;;;;;3.22;2.05;;;;;;;1.96;47.54;94445.19;5101623;28;20474;-71
2023/03/12 06:41:11;;;;;;;6.30;3.22;;;;;;;1.88;47.64;94451.03;5101604;28;20085;-72
2023/03/12 06:43:37;;;;;;;3.85;2.00;;;;;;;1.92;47.54;94460.69;5099663;28;20762;-73
2023/03/12 06:46:04;;;;;;;3.42;1.50;;;;;;;2.03;47.12;94452.53;5103200;28;20035;-73
2023/03/12 06:48:35;;;;;;;2.58;1.85;;;;;;;1.97;46.43;94448.69;5085458;28;20038;-73
2023/03/12 06:51:05;;;;;;;3.90;1.95;;;;;;;2.09;45.84;94462.56;5085248;28;20344;-73
2023/03/12 06:53:31;;;;;;;3.72;2.30;;;;;;;2.04;45.67;94465.69;5102837;28;20066;-73
2023/03/12 06:55:56;;;;;;;2.55;1.80;;;;;;;2.04;45.67;94481.97;5085272;28;20028;-71
2023/03/12 06:58:22;;;;;;;4.15;2.15;;;;;;;1.99;45.51;94466.09;5102318;28;20085;-72
2023/03/12 07:00:47;;;;;;;3.30;2.05;;;;;;;2.12;45.22;94483.50;5102015;28;20516;-72
2023/03/12 07:03:13;;;;;;;3.45;2.45;;;;;;;2.17;45.37;94490.44;5103619;28;20028;-72
2023/03/12 07:05:39;;;;;;;5.28;2.95;;;;;;;2.30;44.97;94494.28;5101017;28;20023;-72
2023/03/12 07:08:04;;;;;;;3.92;2.17;;;;;;;2.35;44.84;94498.50;5101948;28;20036;-73
2023/03/12 07:10:30;;;;;;;3.15;2.22;;;;;;;2.48;44.80;94499.59;5102777;28;20470;-71
2023/03/12 07:12:55;;;;;;;2.70;1.92;;;;;;;2.60;44.63;94493.72;5103090;28;20126;-73
2023/03/12 07:15:21;;;;;;;3.17;2.20;;;;;;;2.63;44.64;94503.78;5100793;28;20058;-74
2023/03/12 07:17:47;;;;;;;2.60;1.83;;;;;;;2.72;44.11;94511.50;5101035;28;20464;-73
2023/03/12 07:20:12;;;;;;;3.33;1.90;;;;;;;2.77;44.30;94513.03;5084604;28;20043;-73
2023/03/12 07:22:38;;;;;;;3.92;2.13;;;;;;;2.81;44.72;94519.19;5106850;28;20028;-73
2023/03/12 07:25:04;;;;;;;4.78;2.60;;;;;;;2.84;44.58;94521.13;5089026;28;20127;-72
2023/03/12 07:27:29;;;;;;;5.32;2.40;;;;;;;2.99;43.96;94528.03;5104833;28;20024;-72
2023/03/12 07:29:54;;;;;;;4.97;3.05;;;;;;;3.15;44.38;94524.78;5085612;28;20471;-72
2023/03/12 07:32:20;;;;;;;3.67;2.53;;;;;;;3.30;43.56;94523.53;5106496;28;20102;-71
2023/03/12 07:34:45;;;;;;;4.32;2.50;;;;;;;3.30;43.38;94530.91;5104800;27;20332;-73
2023/03/12 07:37:11;;;;;;;3.10;2.20;;;;;;;3.40;43.07;94532.78;5104728;27;20020;-72
2023/03/12 07:39:36;;;;;;;7.28;2.95;;;;;;;3.59;42.75;94526.00;5105736;28;20019;-73
2023/03/12 07:42:02;;;;;;;4.65;2.55;;;;;;;3.62;42.60;94517.06;5104370;28;20028;-72
2023/03/12 07:44:28;;;;;;;4.93;2.20;;;;;;;3.77;42.69;94520.41;5106370;28;20027;-72
2023/03/12 07:46:53;;;;;;;3.40;2.10;;;;;;;3.90;42.33;94527.69;5104248;27;20035;-73
2023/03/12 07:49:19;;;;;;;2.53;1.90;;;;;;;4.14;41.61;94533.28;5088140;28;20529;-73
2023/03/12 07:51:45;;;;;;;3.38;2.42;;;;;;;4.31;41.05;94531.53;5107279;27;20036;-73
2023/03/12 07:54:10;;;;;;;3.83;2.55;;;;;;;4.26;41.18;94530.78;5106237;28;20343;-73
2023/03/12 07:56:36;;;;;;;3.28;2.10;;;;;;;4.50;40.90;94539.84;5107661;27;20585;-76
2023/03/12 07:59:01;;;;;;;2.70;2.00;;;;;;;4.61;41.00;94549.84;5087695;28;20149;-73
2023/03/12 08:01:30;;;;;;;3.58;2.33;;;;;;;4.76;40.38;94545.78;5106196;28;20433;-73
2023/03/12 08:04:00;;;;;;;3.63;2.45;;;;;;;4.95;39.49;94550.56;5104098;28;20535;-73
2023/03/12 08:06:25;;;;;;;3.28;2.15;;;;;;;5.06;38.76;94537.56;5103977;28;20054;-72
2023/03/12 08:08:51;;;;;;;2.42;2.05;;;;;;;4.97;38.52;94548.19;5106716;28;20478;-73
2023/03/12 08:11:16;;;;;;;4.38;2.38;;;;;;;5.09;39.23;94541.41;5104086;28;20028;-73
2023/03/12 08:13:42;;;;;;;4.35;2.47;;;;;;;4.99;39.23;94526.00;5106418;28;20482;-73
2023/03/12 08:16:07;;;;;;;3.90;2.47;;;;;;;4.98;38.75;94540.78;5105263;27;20503;-73
2023/03/12 08:18:33;;;;;;;5.18;3.05;;;;;;;5.05;37.58;94546.16;5107319;28;20027;-73
2023/03/12 08:20:58;;;;;;;5.43;2.95;;;;;;;5.17;37.28;94548.31;5105050;28;20019;-73
2023/03/12 08:23:25;;;;;;;5.78;2.80;;;;;;;5.37;37.64;94559.31;5107362;28;20127;-73
2023/03/12 08:25:51;;;;;;;4.00;2.42;;;;;;;5.35;36.73;94547.28;5105420;28;20028;-72
2023/03/12 08:28:17;;;;;;;7.20;2.90;;;;;;;5.63;37.07;94546.84;5098726;28;20049;-73
2023/03/12 08:30:51;;;;;;;4.35;2.30;;;;;;;5.86;37.28;94559.72;5086447;28;20032;-73
2023/03/12 08:33:16;;;;;;;;;;;;;;;6.08;36.27;94566.41;5085208;28;20052;-71
2023/03/12 08:35:41;;;;;;;4.05;1.88;;;;;;;6.25;36.01;94572.72;5085246;28;20353;-73
2023/03/12 08:38:07;;;;;;;2.58;1.88;;;;;;;6.58;35.58;94554.53;5084658;28;20043;-72
2023/03/12 08:40:32;;;;;;;3.05;2.00;;;;;;;6.78;35.42;94564.72;5084772;28;20024;-73
2023/03/12 08:42:58;;;;;;;3.95;2.10;;;;;;;7.06;34.85;94572.31;5084386;28;20151;-72
2023/03/12 08:45:23;;;;;;;2.85;1.90;;;;;;;7.19;34.29;94573.19;5085052;28;20066;-73
2023/03/12 08:47:49;;;;;;;4.68;2.10;;;;;;;7.50;34.10;94585.81;5084645;28;20032;-72
2023/03/12 08:50:15;;;;;;;2.40;1.85;;;;;;;7.63;33.83;94573.03;5084657;28;20241;-72
2023/03/12 08:52:41;;;;;;;5.85;2.20;;;;;;;7.86;33.43;94572.88;5086468;28;20032;-73
2023/03/12 08:55:08;;;;;;;3.25;2.17;;;;;;;8.06;33.34;94578.22;5084393;28;20111;-73
2023/03/12 08:57:33;;;;;;;3.22;2.17;;;;;;;8.28;33.20;94580.44;5067814;28;20059;-73
2023/03/12 08:59:58;;;;;;;3.35;2.00;;;;;;;8.63;32.71;94595.97;5086051;28;20475;-73
2023/03/12 09:02:24;;;;;;;3.22;2.40;;;;;;;8.84;32.25;94597.38;5084342;28;20589;-73
2023/03/12 09:04:49;;;;;;;3.38;1.90;;;;;;;8.89;31.51;94588.63;5086015;28;20031;-72
2023/03/12 09:07:17;;;;;;;3.78;2.55;;;;;;;8.71;30.86;94589.09;5085756;28;20077;-73
2023/03/12 09:09:43;;;;;;;4.15;3.13;;;;;;;9.00;31.59;94591.03;5085895;28;20383;-73
2023/03/12 09:12:09;;;;;;;5.45;2.85;;;;;;;9.15;30.78;94589.44;5084092;28;20020;-74
2023/03/12 09:14:34;;;;;;;4.15;2.22;;;;;;;8.85;30.78;94592.66;5086036;28;20035;-72
2023/03/12 09:17:00;;;;;;;3.30;2.30;;;;;;;8.99;30.91;94584.78;5085441;28;20024;-78
2023/03/12 09:19:26;;;;;;;3.28;2.33;;;;;;;9.08;30.85;94575.94;5084167;28;20047;-73
2023/03/12 09:21:51;;;;;;;3.47;1.92;;;;;;;9.35;30.56;94586.53;5083747;28;20406;-74
2023/03/12 09:24:17;;;;;;;4.78;2.70;;;;;;;9.42;30.50;94588.28;5085485;28;20020;-75
2023/03/12 09:26:42;;;;;;;3.03;2.40;;;;;;;9.69;30.34;94580.41;5083643;28;20028;-77
2023/03/12 09:29:08;;;;;;;3.67;2.17;;;;;;;10.24;29.25;94588.47;5067050;28;20016;-81
2023/03/12 09:31:35;;;;;;;3.03;2.15;;;;;;;9.99;28.70;94573.56;5070678;28;20030;-78
2023/03/12 09:34:01;;;;;;;5.28;2.38;;;;;;;10.29;29.25;94588.69;5086281;28;20020;-77
2023/03/12 09:36:26;;;;;;;5.53;2.10;;;;;;;10.62;29.11;94577.38;5066879;28;20039;-77
2023/03/12 09:38:53;;;;;;;5.70;2.45;;;;;;;11.08;28.74;94583.22;5083945;28;20039;-76
2023/03/12 09:41:21;;;;;;;2.92;2.05;;;;;;;11.54;28.15;94586.25;5082854;28;20070;-75
2023/03/12 09:44:15;;;;;;;6.50;2.78;;;;;;;12.07;27.48;94594.44;5083543;28;20029;-77
2023/03/12 09:46:47;;;;;;;2.60;2.22;;;;;;;12.09;26.45;94590.00;5083672;28;20083;-76
2023/03/12 09:49:20;;;;;;;3.65;2.00;;;;;;;12.32;26.00;94593.41;5085067;28;20024;-76
2023/03/12 09:51:51;;;;;;;3.80;2.05;;;;;;;12.63;26.38;94587.81;5083127;28;20089;-76
2023/03/12 09:54:22;;;;;;;2.80;2.15;;;;;;;12.78;25.81;94594.22;5066761;28;20691;-76
2023/03/12 09:56:50;;;;;;;3.15;2.10;;;;;;;12.62;25.87;94575.25;5083566;28;20036;-75
2023/03/12 09:59:15;;;;;;;2.70;2.20;;;;;;;12.91;25.91;94581.06;5083348;28;20607;-75
2023/03/12 10:01:46;;;;;;;4.03;2.22;;;;;;;13.34;25.39;94568.16;5066775;28;20020;-74
2023/03/12 10:04:36;;;;;;;4.43;2.47;;;;;;;13.82;24.39;94580.16;5083381;28;20109;-75
2023/03/12 10:07:20;;;;;;;5.28;2.90;;;;;;;14.29;23.91;94589.75;5084714;28;20620;-74
2023/03/12 10:10:03;;;;;;;3.55;2.00;;;;;;;14.73;23.50;94582.88;5084014;28;20055;-75
2023/03/12 10:12:32;;;;;;;;;;;;;;;15.06;22.82;94558.63;5085015;28;20438;-74
2023/03/12 10:15:00;;;;;;;2.92;2.30;;;;;;;15.37;22.32;94574.03;5084828;28;19912;-75
2023/03/12 10:18:17;;;;;;;3.92;2.08;;;;;;;14.98;22.46;94578.84;5082778;28;20521;-74
2023/03/12 10:21:17;;;;;;;5.13;2.15;;;;;;;14.74;23.33;94576.88;5061193;28;20498;-76
2023/03/12 10:24:07;;;;;;;2.70;1.90;;;;;;;14.96;23.12;94576.53;5084201;28;20116;-73
2023/03/12 10:26:40;;;;;;;4.00;2.42;;;;;;;14.46;23.36;94581.81;5082545;28;20028;-74
2023/03/12 10:29:21;;;;;;;2.58;1.90;;;;;;;14.49;22.99;94585.66;5078199;28;20027;-74
2023/03/12 10:31:55;;;;;;;3.35;1.90;;;;;;;14.94;22.24;94581.78;5101592;28;20075;-73
2023/03/12 10:34:29;;;;;;;3.08;1.88;;;;;;;15.14;22.86;94579.19;5102677;28;20032;-72
2023/03/12 10:36:58;;;;;;;2.88;1.98;;;;;;;15.56;22.36;94575.38;5105021;28;20030;-74
2023/03/12 10:39:23;;;;;;;3.25;1.83;;;;;;;16.01;23.07;94581.66;5105743;28;20056;-73
2023/03/12 10:41:51;;;;;;;3.30;2.20;;;;;;;16.37;21.74;94585.22;5104676;28;20111;-72
2023/03/12 10:44:22;;;;;;;2.45;1.90;;;;;;;16.35;21.55;94580.16;5103441;28;20035;-72
2023/03/12 10:47:01;;;;;;;2.65;2.03;;;;;;;16.51;21.52;94584.38;5101167;28;20119;-71
2023/03/12 10:49:30;;;;;;;2.90;1.92;;;;;;;16.66;21.05;94585.09;5104561;28;20034;-72
2023/03/12 10:51:59;;;;;;;2.83;1.90;;;;;;;16.99;20.89;94578.47;5102932;28;20626;-72
2023/03/12 10:54:29;;;;;;;3.63;1.90;;;;;;;17.48;20.01;94571.88;5102998;28;20024;-71
2023/03/12 10:56:55;;;;;;;3.05;1.98;;;;;;;17.78;20.08;94577.25;5108094;28;20089;-72
2023/03/12 10:59:22;;;;;;;3.83;2.17;;;;;;;17.20;19.76;94595.84;5090151;28;20112;-70
2023/03/12 11:01:51;;;;;;;4.28;1.95;;;;;;;17.21;19.35;94583.50;5108487;28;20031;-69
2023/03/12 11:04:25;;;;;;;2.72;1.90;;;;;;;18.90;17.84;94580.00;5108536;28;20035;-71
2023/03/12 11:07:15;;;;;;;3.10;1.73;;;;;;;20.26;16.44;94574.94;5108646;28;20094;-72
2023/03/12 11:09:40;;;;;;;2.53;1.90;;;;;;;21.54;15.92;94575.03;5106883;28;20023;-72
2023/03/12 11:12:27;;;;;;;2.00;1.73;;;;;;;22.96;14.11;94583.25;5106858;28;20038;-71
2023/03/12 11:14:53;;;;;;;2.33;1.60;;;;;;;23.28;13.30;94582.59;5106975;28;20079;-70
2023/03/12 11:17:24;;;;;;;2.45;1.60;;;;;;;24.55;13.36;94581.25;5108564;28;20024;-70
2023/03/12 11:19:50;;;;;;;2.92;1.90;;;;;;;25.25;12.39;94580.22;5108307;28;20031;-71
2023/03/12 11:22:28;;;;;;;4.53;2.20;;;;;;;26.51;11.33;94578.41;5108078;28;20059;-74
2023/03/12 11:24:59;;;;;;;3.92;2.15;;;;;;;26.11;11.47;94578.59;5106562;28;20024;-76
2023/03/12 11:27:38;;;;;;;2.38;1.50;;;;;;;25.32;11.73;94571.09;5089612;28;20024;-75
2023/03/12 11:30:06;;;;;;;3.33;2.15;;;;;;;22.36;14.31;94565.75;5106732;28;20405;-70
2023/03/12 11:32:36;;;;;;;2.60;2.00;;;;;;;24.36;12.80;94572.88;5106519;28;20373;-71
2023/03/12 11:35:03;;;;;;;2.90;1.88;;;;;;;25.24;12.16;94573.84;5089507;28;20024;-71
2023/03/12 11:37:50;;;;;;;2.33;1.75;;;;;;;25.80;11.47;94560.63;5106601;28;20028;-71
2023/03/12 11:40:40;;;;;;;2.42;1.90;;;;;;;24.14;12.75;94561.22;5107572;28;20100;-70
2023/03/12 11:43:26;;;;;;;3.38;2.08;;;;;;;22.70;13.88;94554.97;5108541;28;20128;-70